sensor_id;sensor_type;location;lat;lon;timestamp;pressure;altitude;pressure_sealevel;temperature;humidity
71976;BME280;68326;52.124;5.424;2023-07-20T00:02:17;101479.81;;;16.91;97.14
71976;BME280;68326;52.124;5.424;2023-07-20T00:04:44;101478.06;;;16.92;97.07
71976;BME280;68326;52.124;5.424;2023-07-20T00:07:10;101476.47;;;16.89;97.35
71976;BME280;68326;52.124;5.424;2023-07-20T00:09:37;101474.69;;;16.90;97.57
71976;BME280;68326;52.124;5.424;2023-07-20T00:12:03;101475.63;;;16.89;97.54
71976;BME280;68326;52.124;5.424;2023-07-20T00:14:30;101484.38;;;16.89;97.42
71976;BME280;68326;52.124;5.424;2023-07-20T00:16:58;101475.81;;;16.86;97.46
71976;BME280;68326;52.124;5.424;2023-07-20T00:19:26;101475.94;;;16.84;97.16
71976;BME280;68326;52.124;5.424;2023-07-20T00:21:54;101471.72;;;16.82;97.22
71976;BME280;68326;52.124;5.424;2023-07-20T00:24:21;101469.25;;;16.79;97.24
71976;BME280;68326;52.124;5.424;2023-07-20T00:26:48;101484.41;;;16.75;97.74
71976;BME280;68326;52.124;5.424;2023-07-20T00:29:15;101478.31;;;16.75;97.63
71976;BME280;68326;52.124;5.424;2023-07-20T00:31:41;101472.94;;;16.76;97.54
71976;BME280;68326;52.124;5.424;2023-07-20T00:34:10;101478.41;;;16.73;97.66
71976;BME280;68326;52.124;5.424;2023-07-20T00:36:36;101472.50;;;16.69;97.32
71976;BME280;68326;52.124;5.424;2023-07-20T00:39:03;101468.47;;;16.64;97.55
71976;BME280;68326;52.124;5.424;2023-07-20T00:41:29;101473.84;;;16.62;97.56
71976;BME280;68326;52.124;5.424;2023-07-20T00:43:56;101465.97;;;16.62;97.71
71976;BME280;68326;52.124;5.424;2023-07-20T00:46:23;101466.47;;;16.55;97.33
71976;BME280;68326;52.124;5.424;2023-07-20T00:48:54;101469.09;;;16.55;97.13
71976;BME280;68326;52.124;5.424;2023-07-20T00:51:21;101467.50;;;16.52;97.31
71976;BME280;68326;52.124;5.424;2023-07-20T00:53:49;101468.75;;;16.46;97.21
71976;BME280;68326;52.124;5.424;2023-07-20T00:56:16;101471.78;;;16.40;97.22
71976;BME280;68326;52.124;5.424;2023-07-20T00:58:43;101472.06;;;16.36;96.87
71976;BME280;68326;52.124;5.424;2023-07-20T01:01:10;101469.66;;;16.33;97.01
71976;BME280;68326;52.124;5.424;2023-07-20T01:03:37;101468.81;;;16.32;97.39
71976;BME280;68326;52.124;5.424;2023-07-20T01:06:22;101470.59;;;16.31;97.57
71976;BME280;68326;52.124;5.424;2023-07-20T01:09:01;101475.22;;;16.28;97.76
71976;BME280;68326;52.124;5.424;2023-07-20T01:11:46;101478.84;;;16.25;97.11
71976;BME280;68326;52.124;5.424;2023-07-20T01:14:15;101477.78;;;16.15;97.82
71976;BME280;68326;52.124;5.424;2023-07-20T01:16:43;101476.28;;;16.11;97.95
71976;BME280;68326;52.124;5.424;2023-07-20T01:19:10;101479.00;;;16.09;97.76
71976;BME280;68326;52.124;5.424;2023-07-20T01:21:48;101476.28;;;16.11;97.76
71976;BME280;68326;52.124;5.424;2023-07-20T01:29:54;101475.34;;;15.98;96.79
71976;BME280;68326;52.124;5.424;2023-07-20T01:32:26;101478.66;;;15.87;97.87
71976;BME280;68326;52.124;5.424;2023-07-20T01:34:54;101477.28;;;15.81;98.08
71976;BME280;68326;52.124;5.424;2023-07-20T01:37:22;101476.72;;;15.76;97.80
71976;BME280;68326;52.124;5.424;2023-07-20T01:39:54;101474.19;;;15.75;97.80
71976;BME280;68326;52.124;5.424;2023-07-20T01:42:22;101477.91;;;15.70;98.11
71976;BME280;68326;52.124;5.424;2023-07-20T01:44:51;101468.53;;;15.66;98.00
71976;BME280;68326;52.124;5.424;2023-07-20T01:47:19;101470.59;;;15.61;98.82
71976;BME280;68326;52.124;5.424;2023-07-20T01:49:46;101473.72;;;15.54;98.21
71976;BME280;68326;52.124;5.424;2023-07-20T01:52:12;101475.56;;;15.52;98.23
71976;BME280;68326;52.124;5.424;2023-07-20T01:54:39;101481.94;;;15.47;98.35
71976;BME280;68326;52.124;5.424;2023-07-20T01:57:05;101483.16;;;15.42;97.79
71976;BME280;68326;52.124;5.424;2023-07-20T01:59:32;101493.84;;;15.39;98.73
71976;BME280;68326;52.124;5.424;2023-07-20T02:01:58;101490.19;;;15.41;99.92
71976;BME280;68326;52.124;5.424;2023-07-20T02:04:25;101487.72;;;15.38;98.87
71976;BME280;68326;52.124;5.424;2023-07-20T02:06:51;101490.56;;;15.35;98.39
71976;BME280;68326;52.124;5.424;2023-07-20T02:09:18;101486.22;;;15.34;99.81
71976;BME280;68326;52.124;5.424;2023-07-20T02:11:44;101482.13;;;15.30;100.00
71976;BME280;68326;52.124;5.424;2023-07-20T02:14:11;101486.44;;;15.31;100.00
71976;BME280;68326;52.124;5.424;2023-07-20T02:16:37;101482.22;;;15.28;99.78
71976;BME280;68326;52.124;5.424;2023-07-20T02:19:04;101489.03;;;15.31;100.00
71976;BME280;68326;52.124;5.424;2023-07-20T02:21:33;101483.72;;;15.33;100.00
71976;BME280;68326;52.124;5.424;2023-07-20T02:24:00;101490.56;;;15.35;100.00
71976;BME280;68326;52.124;5.424;2023-07-20T02:26:26;101486.13;;;15.36;99.84
71976;BME280;68326;52.124;5.424;2023-07-20T02:28:53;101488.97;;;15.33;100.00
71976;BME280;68326;52.124;5.424;2023-07-20T02:31:20;101484.75;;;15.30;99.51
71976;BME280;68326;52.124;5.424;2023-07-20T02:33:46;101486.69;;;15.26;99.70
71976;BME280;68326;52.124;5.424;2023-07-20T02:36:13;101485.19;;;15.22;99.58
71976;BME280;68326;52.124;5.424;2023-07-20T02:38:39;101483.50;;;15.21;99.95
71976;BME280;68326;52.124;5.424;2023-07-20T02:41:06;101486.03;;;15.23;100.00
71976;BME280;68326;52.124;5.424;2023-07-20T02:43:32;101487.06;;;15.20;98.67
71976;BME280;68326;52.124;5.424;2023-07-20T02:45:59;101482.63;;;15.06;98.25
71976;BME280;68326;52.124;5.424;2023-07-20T02:48:25;101490.13;;;14.98;98.23
71976;BME280;68326;52.124;5.424;2023-07-20T02:50:52;101488.09;;;14.87;98.52
71976;BME280;68326;52.124;5.424;2023-07-20T02:53:18;101489.47;;;14.79;99.20
71976;BME280;68326;52.124;5.424;2023-07-20T02:55:45;101491.03;;;14.67;98.70
71976;BME280;68326;52.124;5.424;2023-07-20T02:58:12;101496.91;;;14.56;99.39
71976;BME280;68326;52.124;5.424;2023-07-20T03:00:38;101494.66;;;14.48;99.03
71976;BME280;68326;52.124;5.424;2023-07-20T03:03:05;101498.50;;;14.43;98.54
71976;BME280;68326;52.124;5.424;2023-07-20T03:05:36;101513.94;;;14.32;99.04
71976;BME280;68326;52.124;5.424;2023-07-20T03:08:05;101518.84;;;14.22;98.22
71976;BME280;68326;52.124;5.424;2023-07-20T03:10:32;101521.13;;;14.12;98.58
71976;BME280;68326;52.124;5.424;2023-07-20T03:12:59;101519.00;;;14.03;97.64
71976;BME280;68326;52.124;5.424;2023-07-20T03:15:25;101527.25;;;13.95;98.70
71976;BME280;68326;52.124;5.424;2023-07-20T03:17:52;101530.97;;;13.91;98.64
71976;BME280;68326;52.124;5.424;2023-07-20T03:20:18;101540.91;;;13.84;98.42
71976;BME280;68326;52.124;5.424;2023-07-20T03:22:45;101536.38;;;13.88;98.85
71976;BME280;68326;52.124;5.424;2023-07-20T03:25:12;101534.41;;;13.92;98.60
71976;BME280;68326;52.124;5.424;2023-07-20T03:27:39;101531.66;;;13.95;99.26
71976;BME280;68326;52.124;5.424;2023-07-20T03:30:06;101536.88;;;13.95;98.90
71976;BME280;68326;52.124;5.424;2023-07-20T03:32:33;101527.25;;;13.95;98.67
71976;BME280;68326;52.124;5.424;2023-07-20T03:35:00;101530.47;;;14.00;99.97
71976;BME280;68326;52.124;5.424;2023-07-20T03:37:26;101523.63;;;13.98;99.91
71976;BME280;68326;52.124;5.424;2023-07-20T03:39:53;101528.28;;;13.93;99.57
71976;BME280;68326;52.124;5.424;2023-07-20T03:42:19;101523.19;;;13.90;99.50
71976;BME280;68326;52.124;5.424;2023-07-20T03:44:46;101523.88;;;13.93;99.62
71976;BME280;68326;52.124;5.424;2023-07-20T03:47:12;101527.94;;;13.99;100.00
71976;BME280;68326;52.124;5.424;2023-07-20T03:49:39;101529.94;;;13.94;99.48
71976;BME280;68326;52.124;5.424;2023-07-20T03:52:06;101526.56;;;13.92;99.44
71976;BME280;68326;52.124;5.424;2023-07-20T03:54:32;101538.50;;;13.97;100.00
71976;BME280;68326;52.124;5.424;2023-07-20T03:56:59;101534.19;;;13.96;99.33
71976;BME280;68326;52.124;5.424;2023-07-20T03:59:27;101535.19;;;13.94;99.06
71976;BME280;68326;52.124;5.424;2023-07-20T04:01:53;101525.66;;;13.93;99.59
71976;BME280;68326;52.124;5.424;2023-07-20T04:04:20;101531.81;;;13.92;100.00
71976;BME280;68326;52.124;5.424;2023-07-20T04:06:46;101538.06;;;13.89;100.00
71976;BME280;68326;52.124;5.424;2023-07-20T04:09:13;101538.22;;;13.86;100.00
71976;BME280;68326;52.124;5.424;2023-07-20T04:11:39;101549.00;;;13.80;99.81
71976;BME280;68326;52.124;5.424;2023-07-20T04:14:07;101547.47;;;13.76;100.00
71976;BME280;68326;52.124;5.424;2023-07-20T04:16:33;101547.47;;;13.76;100.00
71976;BME280;68326;52.124;5.424;2023-07-20T04:19:00;101553.41;;;13.79;100.00
71976;BME280;68326;52.124;5.424;2023-07-20T04:21:27;101552.47;;;13.80;100.00
71976;BME280;68326;52.124;5.424;2023-07-20T04:23:54;101551.13;;;13.73;100.00
71976;BME280;68326;52.124;5.424;2023-07-20T04:26:20;101555.09;;;13.80;100.00
71976;BME280;68326;52.124;5.424;2023-07-20T04:28:47;101561.59;;;13.89;100.00
71976;BME280;68326;52.124;5.424;2023-07-20T04:31:15;101557.81;;;13.95;100.00
71976;BME280;68326;52.124;5.424;2023-07-20T04:33:42;101559.44;;;13.97;100.00
71976;BME280;68326;52.124;5.424;2023-07-20T04:36:09;101556.81;;;13.97;100.00
71976;BME280;68326;52.124;5.424;2023-07-20T04:38:35;101560.25;;;13.98;100.00
71976;BME280;68326;52.124;5.424;2023-07-20T04:41:02;101563.50;;;14.03;100.00
71976;BME280;68326;52.124;5.424;2023-07-20T04:43:29;101562.56;;;14.04;100.00
71976;BME280;68326;52.124;5.424;2023-07-20T04:45:56;101568.56;;;14.06;100.00
71976;BME280;68326;52.124;5.424;2023-07-20T04:48:22;101573.72;;;14.07;100.00
71976;BME280;68326;52.124;5.424;2023-07-20T04:50:49;101574.47;;;14.10;100.00
71976;BME280;68326;52.124;5.424;2023-07-20T04:53:15;101570.09;;;14.10;100.00
71976;BME280;68326;52.124;5.424;2023-07-20T04:55:48;101567.22;;;14.15;100.00
71976;BME280;68326;52.124;5.424;2023-07-20T04:58:20;101555.16;;;14.12;100.00
71976;BME280;68326;52.124;5.424;2023-07-20T05:00:48;101563.50;;;14.19;100.00
71976;BME280;68326;52.124;5.424;2023-07-20T05:03:15;101568.41;;;14.25;100.00
71976;BME280;68326;52.124;5.424;2023-07-20T05:05:42;101566.22;;;14.33;100.00
71976;BME280;68326;52.124;5.424;2023-07-20T05:08:08;101573.56;;;14.42;100.00
71976;BME280;68326;52.124;5.424;2023-07-20T05:10:35;101566.13;;;14.51;100.00
71976;BME280;68326;52.124;5.424;2023-07-20T05:13:01;101571.00;;;14.58;100.00
71976;BME280;68326;52.124;5.424;2023-07-20T05:15:28;101567.44;;;14.59;100.00
71976;BME280;68326;52.124;5.424;2023-07-20T05:17:54;101571.50;;;14.65;99.96
71976;BME280;68326;52.124;5.424;2023-07-20T05:20:21;101578.75;;;14.76;100.00
71976;BME280;68326;52.124;5.424;2023-07-20T05:22:47;101565.13;;;14.85;99.47
71976;BME280;68326;52.124;5.424;2023-07-20T05:25:14;101568.22;;;14.92;99.53
71976;BME280;68326;52.124;5.424;2023-07-20T05:27:44;101572.03;;;15.02;99.49
71976;BME280;68326;52.124;5.424;2023-07-20T05:30:11;101569.06;;;15.08;98.58
71976;BME280;68326;52.124;5.424;2023-07-20T05:32:38;101564.41;;;15.13;98.52
71976;BME280;68326;52.124;5.424;2023-07-20T05:35:05;101567.03;;;15.27;98.55
71976;BME280;68326;52.124;5.424;2023-07-20T05:37:32;101569.03;;;15.38;98.90
71976;BME280;68326;52.124;5.424;2023-07-20T05:39:58;101574.66;;;15.46;98.19
71976;BME280;68326;52.124;5.424;2023-07-20T05:42:25;101574.91;;;15.58;98.65
71976;BME280;68326;52.124;5.424;2023-07-20T05:44:52;101575.94;;;15.69;97.03
71976;BME280;68326;52.124;5.424;2023-07-20T05:47:19;101572.97;;;15.76;96.77
71976;BME280;68326;52.124;5.424;2023-07-20T05:49:46;101566.50;;;15.81;95.91
71976;BME280;68326;52.124;5.424;2023-07-20T05:52:13;101572.41;;;15.85;95.85
71976;BME280;68326;52.124;5.424;2023-07-20T05:54:39;101565.47;;;15.84;95.53
71976;BME280;68326;52.124;5.424;2023-07-20T05:57:06;101563.59;;;15.86;96.12
71976;BME280;68326;52.124;5.424;2023-07-20T05:59:32;101563.88;;;15.96;97.39
71976;BME280;68326;52.124;5.424;2023-07-20T06:01:59;101570.16;;;16.07;96.85
71976;BME280;68326;52.124;5.424;2023-07-20T06:04:25;101574.75;;;16.18;95.80
71976;BME280;68326;52.124;5.424;2023-07-20T06:06:52;101567.88;;;16.30;94.78
71976;BME280;68326;52.124;5.424;2023-07-20T06:09:18;101573.59;;;16.37;94.02
71976;BME280;68326;52.124;5.424;2023-07-20T06:11:45;101574.03;;;16.43;94.18
71976;BME280;68326;52.124;5.424;2023-07-20T06:14:12;101581.31;;;16.52;94.98
71976;BME280;68326;52.124;5.424;2023-07-20T06:16:38;101580.09;;;16.58;92.38
71976;BME280;68326;52.124;5.424;2023-07-20T06:19:05;101581.59;;;16.62;92.29
71976;BME280;68326;52.124;5.424;2023-07-20T06:21:32;101579.41;;;16.69;90.99
71976;BME280;68326;52.124;5.424;2023-07-20T06:23:58;101580.59;;;16.78;91.46
71976;BME280;68326;52.124;5.424;2023-07-20T06:26:25;101585.94;;;16.90;91.19
71976;BME280;68326;52.124;5.424;2023-07-20T06:28:52;101582.69;;;17.00;90.15
71976;BME280;68326;52.124;5.424;2023-07-20T06:31:18;101582.13;;;17.09;88.70
71976;BME280;68326;52.124;5.424;2023-07-20T06:33:45;101590.13;;;17.20;86.24
71976;BME280;68326;52.124;5.424;2023-07-20T06:36:11;101592.25;;;17.28;83.73
71976;BME280;68326;52.124;5.424;2023-07-20T06:38:38;101580.78;;;17.42;83.38
71976;BME280;68326;52.124;5.424;2023-07-20T06:41:05;101591.75;;;17.48;82.67
71976;BME280;68326;52.124;5.424;2023-07-20T06:43:34;101590.88;;;17.35;80.56
71976;BME280;68326;52.124;5.424;2023-07-20T06:46:04;101596.22;;;17.21;81.65
71976;BME280;68326;52.124;5.424;2023-07-20T06:48:31;101596.44;;;17.18;85.35
71976;BME280;68326;52.124;5.424;2023-07-20T06:50:57;101596.53;;;17.16;87.15
71976;BME280;68326;52.124;5.424;2023-07-20T06:53:24;101600.22;;;17.14;85.86
71976;BME280;68326;52.124;5.424;2023-07-20T06:55:50;101604.72;;;17.11;86.52
71976;BME280;68326;52.124;5.424;2023-07-20T06:58:17;101605.47;;;17.14;87.65
71976;BME280;68326;52.124;5.424;2023-07-20T07:00:44;101607.81;;;17.31;87.39
71976;BME280;68326;52.124;5.424;2023-07-20T07:03:11;101609.53;;;17.32;86.31
71976;BME280;68326;52.124;5.424;2023-07-20T07:05:37;101611.19;;;17.33;86.32
71976;BME280;68326;52.124;5.424;2023-07-20T07:08:04;101604.25;;;17.32;86.71
71976;BME280;68326;52.124;5.424;2023-07-20T07:10:32;101610.13;;;17.36;85.79
71976;BME280;68326;52.124;5.424;2023-07-20T07:12:59;101604.81;;;17.63;86.14
71976;BME280;68326;52.124;5.424;2023-07-20T07:15:26;101605.16;;;17.97;82.89
71976;BME280;68326;52.124;5.424;2023-07-20T07:17:54;101602.25;;;18.25;79.25
71976;BME280;68326;52.124;5.424;2023-07-20T07:20:21;101605.59;;;18.40;78.01
71976;BME280;68326;52.124;5.424;2023-07-20T07:22:50;101602.63;;;18.58;76.81
71976;BME280;68326;52.124;5.424;2023-07-20T07:25:18;101603.13;;;18.63;77.37
71976;BME280;68326;52.124;5.424;2023-07-20T07:27:49;101598.38;;;18.55;75.49
71976;BME280;68326;52.124;5.424;2023-07-20T07:30:15;101611.84;;;18.39;77.40
71976;BME280;68326;52.124;5.424;2023-07-20T07:32:42;101609.59;;;18.46;76.45
71976;BME280;68326;52.124;5.424;2023-07-20T07:35:09;101606.94;;;18.59;75.95
71976;BME280;68326;52.124;5.424;2023-07-20T07:37:35;101611.53;;;18.68;74.43
71976;BME280;68326;52.124;5.424;2023-07-20T07:40:22;101607.44;;;18.64;72.11
71976;BME280;68326;52.124;5.424;2023-07-20T07:42:49;101603.56;;;18.57;72.09
71976;BME280;68326;52.124;5.424;2023-07-20T07:45:15;101598.72;;;18.50;70.38
71976;BME280;68326;52.124;5.424;2023-07-20T07:47:43;101609.50;;;18.71;73.03
71976;BME280;68326;52.124;5.424;2023-07-20T07:50:10;101613.56;;;18.64;71.71
71976;BME280;68326;52.124;5.424;2023-07-20T07:52:36;101620.69;;;18.51;72.20
71976;BME280;68326;52.124;5.424;2023-07-20T07:55:04;101613.00;;;18.35;71.58
71976;BME280;68326;52.124;5.424;2023-07-20T07:57:31;101609.97;;;18.28;70.11
71976;BME280;68326;52.124;5.424;2023-07-20T07:59:57;101613.34;;;18.30;67.91
71976;BME280;68326;52.124;5.424;2023-07-20T08:02:24;101612.81;;;18.62;68.35
71976;BME280;68326;52.124;5.424;2023-07-20T08:04:50;101609.63;;;18.70;68.34
71976;BME280;68326;52.124;5.424;2023-07-20T08:07:19;101612.81;;;18.99;69.66
71976;BME280;68326;52.124;5.424;2023-07-20T08:09:45;101607.47;;;19.12;66.28
71976;BME280;68326;52.124;5.424;2023-07-20T08:12:12;101607.63;;;19.22;65.20
71976;BME280;68326;52.124;5.424;2023-07-20T08:14:39;101600.09;;;19.28;66.52
71976;BME280;68326;52.124;5.424;2023-07-20T08:17:06;101598.06;;;19.32;64.22
71976;BME280;68326;52.124;5.424;2023-07-20T08:19:33;101600.63;;;19.45;67.27
71976;BME280;68326;52.124;5.424;2023-07-20T08:21:59;101601.97;;;19.62;65.53
71976;BME280;68326;52.124;5.424;2023-07-20T08:24:26;101600.88;;;19.64;65.20
71976;BME280;68326;52.124;5.424;2023-07-20T08:26:53;101605.09;;;19.67;63.28
71976;BME280;68326;52.124;5.424;2023-07-20T08:29:19;101603.75;;;19.61;65.78
71976;BME280;68326;52.124;5.424;2023-07-20T08:31:46;101612.22;;;19.78;63.41
71976;BME280;68326;52.124;5.424;2023-07-20T08:34:12;101609.28;;;19.58;60.75
71976;BME280;68326;52.124;5.424;2023-07-20T08:36:55;101609.25;;;19.47;58.06
71976;BME280;68326;52.124;5.424;2023-07-20T08:39:23;101611.19;;;19.45;59.58
71976;BME280;68326;52.124;5.424;2023-07-20T08:41:50;101617.47;;;19.66;57.67
71976;BME280;68326;52.124;5.424;2023-07-20T08:44:18;101620.59;;;19.71;57.78
71976;BME280;68326;52.124;5.424;2023-07-20T08:46:45;101618.59;;;19.75;56.54
71976;BME280;68326;52.124;5.424;2023-07-20T08:49:16;101622.41;;;19.71;58.05
71976;BME280;68326;52.124;5.424;2023-07-20T08:51:45;101614.97;;;19.76;59.36
71976;BME280;68326;52.124;5.424;2023-07-20T08:54:13;101617.53;;;20.00;55.90
71976;BME280;68326;52.124;5.424;2023-07-20T08:56:40;101614.16;;;20.32;58.44
71976;BME280;68326;52.124;5.424;2023-07-20T08:59:08;101614.50;;;20.39;54.49
71976;BME280;68326;52.124;5.424;2023-07-20T09:01:36;101618.44;;;20.44;57.45
71976;BME280;68326;52.124;5.424;2023-07-20T09:04:05;101616.06;;;20.64;53.39
71976;BME280;68326;52.124;5.424;2023-07-20T09:06:32;101605.31;;;20.65;53.86
71976;BME280;68326;52.124;5.424;2023-07-20T09:09:01;101610.47;;;20.78;53.42
71976;BME280;68326;52.124;5.424;2023-07-20T09:11:28;101610.09;;;20.83;54.54
71976;BME280;68326;52.124;5.424;2023-07-20T09:14:09;101604.13;;;21.02;56.25
71976;BME280;68326;52.124;5.424;2023-07-20T09:16:51;101601.88;;;21.18;53.49
71976;BME280;68326;52.124;5.424;2023-07-20T09:19:18;101603.19;;;21.24;52.26
71976;BME280;68326;52.124;5.424;2023-07-20T09:21:46;101599.97;;;21.41;54.20
71976;BME280;68326;52.124;5.424;2023-07-20T09:24:14;101599.38;;;21.37;50.97
71976;BME280;68326;52.124;5.424;2023-07-20T09:26:43;101603.13;;;21.35;52.00
71976;BME280;68326;52.124;5.424;2023-07-20T09:29:10;101602.41;;;21.33;54.87
71976;BME280;68326;52.124;5.424;2023-07-20T09:31:37;101603.25;;;21.33;51.70
71976;BME280;68326;52.124;5.424;2023-07-20T09:34:06;101602.66;;;20.76;51.18
71976;BME280;68326;52.124;5.424;2023-07-20T09:36:35;101606.41;;;20.63;52.79
71976;BME280;68326;52.124;5.424;2023-07-20T09:39:05;101603.66;;;20.96;54.47
71976;BME280;68326;52.124;5.424;2023-07-20T09:41:39;101598.66;;;20.93;54.00
71976;BME280;68326;52.124;5.424;2023-07-20T09:44:11;101597.44;;;20.43;51.95
71976;BME280;68326;52.124;5.424;2023-07-20T09:46:44;101602.59;;;20.33;56.90
71976;BME280;68326;52.124;5.424;2023-07-20T09:49:14;101603.41;;;20.56;54.51
71976;BME280;68326;52.124;5.424;2023-07-20T09:51:46;101597.44;;;20.86;55.35
71976;BME280;68326;52.124;5.424;2023-07-20T09:54:14;101597.34;;;20.88;53.17
71976;BME280;68326;52.124;5.424;2023-07-20T09:56:42;101595.28;;;20.91;53.14
71976;BME280;68326;52.124;5.424;2023-07-20T09:59:08;101594.13;;;20.73;54.29
71976;BME280;68326;52.124;5.424;2023-07-20T10:01:36;101589.72;;;20.51;51.61
71976;BME280;68326;52.124;5.424;2023-07-20T10:04:08;101595.88;;;20.40;55.16
71976;BME280;68326;52.124;5.424;2023-07-20T10:06:39;101587.25;;;20.82;50.27
71976;BME280;68326;52.124;5.424;2023-07-20T10:09:10;101593.31;;;20.72;51.96
71976;BME280;68326;52.124;5.424;2023-07-20T10:11:40;101590.50;;;20.74;50.60
71976;BME280;68326;52.124;5.424;2023-07-20T10:14:08;101590.81;;;20.60;48.79
71976;BME280;68326;52.124;5.424;2023-07-20T10:16:44;101584.66;;;20.48;49.14
71976;BME280;68326;52.124;5.424;2023-07-20T10:19:34;101583.84;;;20.91;49.06
71976;BME280;68326;52.124;5.424;2023-07-20T10:22:06;101582.53;;;21.17;48.46
71976;BME280;68326;52.124;5.424;2023-07-20T10:24:35;101582.75;;;21.47;45.99
71976;BME280;68326;52.124;5.424;2023-07-20T10:27:04;101583.75;;;21.76;46.31
71976;BME280;68326;52.124;5.424;2023-07-20T10:29:31;101583.00;;;21.95;47.41
71976;BME280;68326;52.124;5.424;2023-07-20T10:31:58;101585.00;;;22.13;46.03
71976;BME280;68326;52.124;5.424;2023-07-20T10:34:26;101582.06;;;21.75;45.47
71976;BME280;68326;52.124;5.424;2023-07-20T10:36:52;101581.53;;;21.39;46.91
71976;BME280;68326;52.124;5.424;2023-07-20T10:39:33;101576.38;;;21.59;47.93
71976;BME280;68326;52.124;5.424;2023-07-20T10:42:07;101580.66;;;22.02;46.62
71976;BME280;68326;52.124;5.424;2023-07-20T10:44:36;101577.53;;;22.28;47.14
71976;BME280;68326;52.124;5.424;2023-07-20T10:47:09;101583.59;;;22.49;47.52
71976;BME280;68326;52.124;5.424;2023-07-20T10:49:59;101573.56;;;22.72;46.31
71976;BME280;68326;52.124;5.424;2023-07-20T10:52:41;101570.47;;;22.48;44.39
71976;BME280;68326;52.124;5.424;2023-07-20T10:55:17;101573.97;;;22.58;46.67
71976;BME280;68326;52.124;5.424;2023-07-20T10:58:09;101566.56;;;22.62;46.40
71976;BME280;68326;52.124;5.424;2023-07-20T11:00:36;101570.63;;;22.66;45.18
71976;BME280;68326;52.124;5.424;2023-07-20T11:03:03;101565.72;;;22.51;45.37
71976;BME280;68326;52.124;5.424;2023-07-20T11:05:38;101562.88;;;22.33;44.90
71976;BME280;68326;52.124;5.424;2023-07-20T11:08:10;101564.94;;;22.20;47.88
71976;BME280;68326;52.124;5.424;2023-07-20T11:10:38;101566.22;;;21.85;45.17
71976;BME280;68326;52.124;5.424;2023-07-20T11:13:23;101566.97;;;21.66;45.05
71976;BME280;68326;52.124;5.424;2023-07-20T11:18:27;101560.06;;;21.54;47.40
71976;BME280;68326;52.124;5.424;2023-07-20T11:20:54;101562.34;;;21.99;46.93
71976;BME280;68326;52.124;5.424;2023-07-20T11:23:21;101556.22;;;21.98;43.45
71976;BME280;68326;52.124;5.424;2023-07-20T11:25:48;101556.38;;;21.66;43.61
71976;BME280;68326;52.124;5.424;2023-07-20T11:28:14;101549.56;;;21.73;45.14
71976;BME280;68326;52.124;5.424;2023-07-20T11:30:41;101546.69;;;21.86;41.83
71976;BME280;68326;52.124;5.424;2023-07-20T11:33:08;101545.47;;;22.00;45.97
71976;BME280;68326;52.124;5.424;2023-07-20T11:35:36;101541.72;;;22.03;42.78
71976;BME280;68326;52.124;5.424;2023-07-20T11:38:08;101540.13;;;21.81;45.46
71976;BME280;68326;52.124;5.424;2023-07-20T11:40:34;101551.97;;;21.86;42.67
71976;BME280;68326;52.124;5.424;2023-07-20T11:43:01;101545.84;;;21.86;44.81
71976;BME280;68326;52.124;5.424;2023-07-20T11:45:31;101541.84;;;22.01;46.44
71976;BME280;68326;52.124;5.424;2023-07-20T11:47:59;101539.75;;;22.45;42.45
71976;BME280;68326;52.124;5.424;2023-07-20T11:50:26;101530.13;;;22.73;40.95
71976;BME280;68326;52.124;5.424;2023-07-20T11:52:53;101529.13;;;22.84;42.03
71976;BME280;68326;52.124;5.424;2023-07-20T11:55:19;101531.94;;;23.12;44.27
71976;BME280;68326;52.124;5.424;2023-07-20T11:58:05;101529.00;;;23.15;42.30
71976;BME280;68326;52.124;5.424;2023-07-20T12:00:37;101529.44;;;23.10;41.23
71976;BME280;68326;52.124;5.424;2023-07-20T12:03:06;101531.09;;;22.72;44.83
71976;BME280;68326;52.124;5.424;2023-07-20T12:05:38;101535.56;;;22.52;43.12
71976;BME280;68326;52.124;5.424;2023-07-20T12:08:24;101535.53;;;22.33;43.15
71976;BME280;68326;52.124;5.424;2023-07-20T12:10:51;101523.34;;;22.20;46.32
71976;BME280;68326;52.124;5.424;2023-07-20T12:13:17;101532.41;;;22.08;41.92
71976;BME280;68326;52.124;5.424;2023-07-20T12:15:44;101529.25;;;21.84;41.52
71976;BME280;68326;52.124;5.424;2023-07-20T12:18:10;101530.75;;;21.76;45.19
71976;BME280;68326;52.124;5.424;2023-07-20T12:20:37;101517.75;;;22.14;43.52
71976;BME280;68326;52.124;5.424;2023-07-20T12:23:12;101516.88;;;22.44;44.79
71976;BME280;68326;52.124;5.424;2023-07-20T12:25:43;101508.06;;;22.73;43.88
71976;BME280;68326;52.124;5.424;2023-07-20T12:28:12;101507.09;;;22.74;43.96
71976;BME280;68326;52.124;5.424;2023-07-20T12:30:41;101515.88;;;22.45;45.22
71976;BME280;68326;52.124;5.424;2023-07-20T12:33:08;101521.50;;;22.11;44.37
71976;BME280;68326;52.124;5.424;2023-07-20T12:35:35;101521.47;;;21.92;43.18
71976;BME280;68326;52.124;5.424;2023-07-20T12:38:02;101517.50;;;21.76;45.71
71976;BME280;68326;52.124;5.424;2023-07-20T12:40:29;101512.06;;;21.78;46.39
71976;BME280;68326;52.124;5.424;2023-07-20T12:42:57;101515.47;;;21.90;45.70
71976;BME280;68326;52.124;5.424;2023-07-20T12:45:23;101514.09;;;22.05;45.02
71976;BME280;68326;52.124;5.424;2023-07-20T12:47:50;101506.19;;;22.15;46.21
71976;BME280;68326;52.124;5.424;2023-07-20T12:50:17;101512.28;;;21.96;46.25
71976;BME280;68326;52.124;5.424;2023-07-20T12:52:43;101505.69;;;21.81;44.62
71976;BME280;68326;52.124;5.424;2023-07-20T12:55:10;101506.03;;;21.66;46.04
71976;BME280;68326;52.124;5.424;2023-07-20T12:57:37;101512.25;;;21.55;45.87
71976;BME280;68326;52.124;5.424;2023-07-20T13:00:05;101509.44;;;21.47;46.74
71976;BME280;68326;52.124;5.424;2023-07-20T13:02:34;101507.50;;;21.49;47.52